Time;durP1;ratioP1;P1;durP2;ratioP2;P2;SDS_P1;SDS_P2;PMS_P1;PMS_P2;Temp;Humidity;BMP_temperature;BMP_pressure;BME280_temperature;BME280_humidity;BME280_pressure;Samples;Min_cycle;Max_cycle;Signal;HPM_P1;HPM_P2
2022/09/11 00:01:42;;;;;;;9.98;6.15;;;13.90;99.90;;;;;;5009018;28;20022;-54
2022/09/11 00:04:09;;;;;;;9.20;6.13;;;13.90;99.90;;;;;;5008833;28;20068;-53
2022/09/11 00:06:35;;;;;;;9.00;6.05;;;13.90;99.90;;;;;;5008606;28;20026;-53
2022/09/11 00:09:03;;;;;;;15.25;6.75;;;13.90;99.90;;;;;;5008932;28;20033;-53
2022/09/11 00:11:32;;;;;;;7.40;5.53;;;13.90;99.90;;;;;;5008567;28;20046;-53
2022/09/11 00:13:58;;;;;;;10.98;6.05;;;13.90;99.90;;;;;;5008698;28;20106;-53
2022/09/11 00:16:30;;;;;;;12.98;6.57;;;13.90;99.90;;;;;;4974676;28;20404;-53
2022/09/11 00:18:59;;;;;;;10.75;6.03;;;13.90;99.90;;;;;;5008684;28;20180;-53
2022/09/11 00:21:26;;;;;;;11.32;6.30;;;13.90;99.90;;;;;;5008523;28;20022;-53
2022/09/11 00:23:52;;;;;;;8.75;5.35;;;13.90;99.90;;;;;;4991647;28;20026;-53
2022/09/11 00:26:19;;;;;;;10.95;6.05;;;13.90;99.90;;;;;;5008648;28;20029;-53
2022/09/11 00:28:46;;;;;;;;;;;13.90;99.90;;;;;;5009633;28;20117;-54
2022/09/11 00:31:15;;;;;;;11.70;6.63;;;13.90;99.90;;;;;;5009126;28;20005;-54
2022/09/11 00:33:41;;;;;;;9.23;6.28;;;13.90;99.90;;;;;;4991717;28;20045;-54
2022/09/11 00:36:15;;;;;;;11.15;5.97;;;13.90;99.90;;;;;;5016385;28;20469;-53
2022/09/11 00:38:41;;;;;;;9.23;5.90;;;13.90;99.90;;;;;;5009146;28;20034;-53
2022/09/11 00:41:14;;;;;;;9.77;5.68;;;13.90;99.90;;;;;;5004078;28;20021;-53
2022/09/11 00:43:58;;;;;;;9.80;5.45;;;13.90;99.90;;;;;;5015777;28;20078;-54
2022/09/11 00:46:30;;;;;;;11.45;5.78;;;13.90;99.90;;;;;;5008865;28;20032;-54
2022/09/11 00:48:58;;;;;;;11.15;5.32;;;14.00;99.90;;;;;;5008065;28;20077;-55
2022/09/11 00:51:32;;;;;;;9.73;4.93;;;14.00;99.90;;;;;;5007658;28;20056;-54
2022/09/11 00:53:58;;;;;;;8.50;5.80;;;14.00;99.90;;;;;;5008046;28;20086;-54
2022/09/11 00:56:28;;;;;;;8.60;5.28;;;14.00;99.90;;;;;;5016094;28;20129;-54
2022/09/11 00:58:55;;;;;;;12.40;5.22;;;14.00;99.90;;;;;;5007826;28;20038;-54
2022/09/11 01:01:21;;;;;;;9.15;5.72;;;14.00;99.90;;;;;;5008056;28;20022;-55
2022/09/11 01:03:47;;;;;;;11.32;5.60;;;14.00;99.90;;;;;;5004963;28;20036;-54
2022/09/11 01:06:13;;;;;;;8.10;5.38;;;14.00;99.90;;;;;;5006188;28;20084;-54
2022/09/11 01:08:39;;;;;;;9.18;5.60;;;14.00;99.90;;;;;;5008018;28;20033;-54
2022/09/11 01:11:27;;;;;;;10.27;5.82;;;13.90;99.90;;;;;;5007865;28;20026;-53
2022/09/11 01:14:02;;;;;;;10.30;5.03;;;13.90;99.90;;;;;;5007529;28;20046;-53
2022/09/11 01:16:39;;;;;;;8.32;5.82;;;13.90;99.90;;;;;;5009815;28;20037;-53
2022/09/11 01:19:38;;;;;;;10.57;5.60;;;13.90;99.90;;;;;;5009672;28;20030;-54
2022/09/11 01:22:07;;;;;;;14.20;6.53;;;13.90;99.90;;;;;;5009590;28;20022;-53
2022/09/11 01:25:00;;;;;;;9.65;5.93;;;13.90;99.90;;;;;;5009126;28;20037;-53
2022/09/11 01:27:49;;;;;;;10.15;5.93;;;13.90;99.90;;;;;;4991025;28;20448;-53
2022/09/11 01:30:36;;;;;;;15.18;6.53;;;13.90;99.90;;;;;;5008769;28;20401;-53
2022/09/11 01:33:16;;;;;;;9.98;6.10;;;13.90;99.90;;;;;;4991125;28;20386;-54
2022/09/11 01:36:12;;;;;;;12.85;6.03;;;13.90;99.90;;;;;;5009746;28;20033;-54
2022/09/11 01:38:50;;;;;;;6.95;5.13;;;13.90;99.90;;;;;;5009263;28;20085;-53
2022/09/11 01:41:28;;;;;;;8.88;5.45;;;14.00;99.90;;;;;;5008602;28;20026;-53
2022/09/11 01:44:02;;;;;;;10.32;6.50;;;14.00;99.90;;;;;;5009063;28;20029;-53
2022/09/11 01:46:33;;;;;;;13.10;6.32;;;14.00;99.90;;;;;;5008590;28;20052;-54
2022/09/11 01:49:14;;;;;;;12.70;6.10;;;14.00;99.90;;;;;;5008836;28;20517;-54
2022/09/11 01:51:40;;;;;;;16.92;6.55;;;13.90;99.90;;;;;;5009337;28;20133;-54
2022/09/11 01:54:18;;;;;;;9.60;6.03;;;13.90;99.90;;;;;;5009325;28;20049;-54
2022/09/11 01:56:51;;;;;;;10.23;6.03;;;13.90;99.90;;;;;;5008528;28;20022;-54
2022/09/11 01:59:24;;;;;;;9.15;5.28;;;13.90;99.90;;;;;;5008481;28;20509;-54
2022/09/11 02:01:57;;;;;;;7.20;4.75;;;13.80;99.90;;;;;;5010157;28;20030;-54
2022/09/11 02:04:30;;;;;;;10.10;5.32;;;13.90;99.90;;;;;;5012361;28;20052;-53
2022/09/11 02:07:01;;;;;;;12.32;5.82;;;13.80;99.90;;;;;;5012109;28;20620;-53
2022/09/11 02:09:33;;;;;;;8.35;5.88;;;13.70;99.90;;;;;;5012285;28;20057;-53
2022/09/11 02:12:06;;;;;;;8.45;5.50;;;13.60;99.90;;;;;;5010747;28;20080;-54
2022/09/11 02:14:44;;;;;;;10.63;5.72;;;13.70;99.90;;;;;;5011949;28;20061;-54
2022/09/11 02:17:19;;;;;;;7.97;5.65;;;13.60;99.90;;;;;;5012808;28;20038;-54
2022/09/11 02:19:45;;;;;;;7.47;5.18;;;13.70;99.90;;;;;;5012590;28;20046;-53
2022/09/11 02:22:10;;;;;;;11.77;5.93;;;13.70;99.90;;;;;;5012418;28;20030;-54
2022/09/11 02:24:37;;;;;;;8.15;5.70;;;13.70;99.90;;;;;;5012264;28;20029;-53
2022/09/11 02:27:16;;;;;;;8.90;5.18;;;13.70;99.90;;;;;;5010235;28;20358;-54
2022/09/11 02:29:42;;;;;;;9.73;5.40;;;13.70;99.90;;;;;;5011607;28;20524;-54
2022/09/11 02:32:10;;;;;;;7.53;4.57;;;13.70;99.90;;;;;;5012864;28;20539;-53
2022/09/11 02:34:38;;;;;;;8.95;4.70;;;13.70;99.90;;;;;;5031561;28;20117;-54
2022/09/11 02:37:33;;;;;;;9.32;5.65;;;13.70;99.90;;;;;;5030514;28;20043;-53
2022/09/11 02:40:30;;;;;;;8.82;5.18;;;13.70;99.90;;;;;;5014300;28;20426;-54
2022/09/11 02:42:55;;;;;;;5.70;4.30;;;13.60;99.90;;;;;;5032026;28;20041;-54
2022/09/11 02:45:25;;;;;;;9.75;5.25;;;13.60;99.90;;;;;;5031163;28;20357;-54
2022/09/11 02:48:14;;;;;;;10.30;4.90;;;13.60;99.90;;;;;;5030935;28;20029;-53
2022/09/11 02:51:08;;;;;;;8.30;5.47;;;13.60;99.90;;;;;;5031348;28;20060;-53
2022/09/11 02:53:42;;;;;;;7.15;4.95;;;13.60;99.90;;;;;;5030772;28;20489;-54
2022/09/11 02:56:33;;;;;;;7.55;5.07;;;13.60;99.90;;;;;;5031400;28;20477;-53
2022/09/11 02:59:05;;;;;;;10.80;6.05;;;13.60;99.90;;;;;;5013692;28;20038;-54
2022/09/11 03:01:48;;;;;;;8.00;5.80;;;13.60;99.90;;;;;;5031731;28;20028;-53
2022/09/11 03:04:14;;;;;;;9.15;5.93;;;13.60;99.90;;;;;;5031613;28;20026;-54
2022/09/11 03:06:41;;;;;;;14.25;5.88;;;13.60;99.90;;;;;;5031407;28;20025;-54
2022/09/11 03:09:11;;;;;;;8.75;5.72;;;13.60;99.90;;;;;;5031467;28;20025;-54
2022/09/11 03:11:37;;;;;;;9.38;5.40;;;13.60;99.90;;;;;;5030596;28;20400;-54
2022/09/11 03:14:03;;;;;;;9.32;5.53;;;13.60;99.90;;;;;;5031047;28;20067;-54
2022/09/11 03:16:28;;;;;;;8.68;6.15;;;13.60;99.90;;;;;;5030675;28;20459;-54
2022/09/11 03:18:54;;;;;;;11.23;6.03;;;13.60;99.90;;;;;;5030464;28;20034;-53
2022/09/11 03:21:20;;;;;;;11.45;5.93;;;13.60;99.90;;;;;;5030308;28;20032;-54
2022/09/11 03:23:45;;;;;;;10.18;6.03;;;13.60;99.90;;;;;;5030292;28;20035;-53
2022/09/11 03:26:11;;;;;;;11.05;6.28;;;13.60;99.90;;;;;;5031352;28;20036;-54
2022/09/11 03:28:38;;;;;;;8.90;6.90;;;13.60;99.90;;;;;;5030856;28;20057;-53
2022/09/11 03:31:06;;;;;;;10.60;6.10;;;13.60;99.90;;;;;;5030163;28;20104;-54
2022/09/11 03:33:32;;;;;;;8.35;5.70;;;13.60;99.90;;;;;;5030174;28;20053;-54
2022/09/11 03:35:58;;;;;;;8.38;5.70;;;13.70;99.90;;;;;;5025282;28;20518;-53
2022/09/11 03:38:24;;;;;;;10.32;6.55;;;13.60;99.90;;;;;;5017641;28;20033;-54
2022/09/11 03:40:49;;;;;;;11.13;6.57;;;13.60;99.90;;;;;;5021441;28;20511;-54
2022/09/11 03:43:15;;;;;;;12.15;5.68;;;13.60;99.90;;;;;;5019572;28;20028;-54
2022/09/11 03:45:42;;;;;;;9.98;6.22;;;13.60;99.90;;;;;;5020186;28;20025;-54
2022/09/11 03:48:07;;;;;;;10.00;5.90;;;13.60;99.90;;;;;;5025566;28;20452;-54
2022/09/11 03:50:33;;;;;;;7.90;5.45;;;13.60;99.90;;;;;;5008052;28;20147;-54
2022/09/11 03:52:59;;;;;;;8.60;5.63;;;13.60;99.90;;;;;;5009130;28;20100;-53
2022/09/11 03:55:25;;;;;;;8.93;6.28;;;13.60;99.90;;;;;;5009274;28;20093;-54
2022/09/11 03:57:50;;;;;;;8.57;5.70;;;13.60;99.90;;;;;;5008581;28;20152;-54
2022/09/11 04:00:16;;;;;;;14.07;5.35;;;13.60;99.90;;;;;;4990677;28;20065;-54
2022/09/11 04:02:42;;;;;;;11.27;5.80;;;13.60;99.90;;;;;;5008741;28;20022;-54
2022/09/11 04:05:09;;;;;;;10.98;5.70;;;13.60;99.90;;;;;;5008382;28;20053;-53
2022/09/11 04:07:35;;;;;;;8.75;5.85;;;13.60;99.90;;;;;;5007613;28;20018;-53
2022/09/11 04:10:01;;;;;;;8.75;5.28;;;13.70;99.90;;;;;;5009891;28;20037;-53
2022/09/11 04:12:27;;;;;;;8.18;5.22;;;13.60;99.90;;;;;;5009529;28;20123;-54
2022/09/11 04:14:53;;;;;;;11.13;4.72;;;13.60;99.90;;;;;;5008577;28;20029;-53
2022/09/11 04:17:19;;;;;;;7.75;4.97;;;13.50;99.90;;;;;;5007782;28;20033;-53
2022/09/11 04:19:44;;;;;;;9.55;4.88;;;13.50;99.90;;;;;;5008499;28;20112;-54
2022/09/11 04:22:10;;;;;;;6.88;4.22;;;13.60;99.90;;;;;;5009068;28;20053;-54
2022/09/11 04:24:36;;;;;;;8.18;4.28;;;13.50;99.90;;;;;;5010085;28;20033;-54
2022/09/11 04:27:02;;;;;;;7.78;4.13;;;13.50;99.90;;;;;;5010385;28;20492;-54
2022/09/11 04:29:28;;;;;;;6.97;4.45;;;13.50;99.90;;;;;;5008931;28;20085;-54
2022/09/11 04:31:54;;;;;;;14.77;5.50;;;13.50;99.90;;;;;;5010317;28;20033;-56
2022/09/11 04:34:21;;;;;;;7.82;4.93;;;13.60;99.90;;;;;;5010305;28;20026;-54
2022/09/11 04:36:46;;;;;;;9.55;5.38;;;13.60;99.90;;;;;;5010286;28;20038;-55
2022/09/11 04:39:12;;;;;;;7.65;4.45;;;13.60;99.90;;;;;;5010307;28;20037;-54
2022/09/11 04:41:38;;;;;;;7.25;4.72;;;13.70;99.90;;;;;;5008859;28;20064;-54
2022/09/11 04:44:03;;;;;;;9.93;5.40;;;13.70;99.90;;;;;;5010059;28;20026;-54
2022/09/11 04:46:29;;;;;;;6.57;4.80;;;13.60;99.90;;;;;;5009843;28;20409;-54
2022/09/11 04:49:01;;;;;;;9.02;4.97;;;13.70;99.90;;;;;;5009254;28;20377;-54
2022/09/11 04:51:32;;;;;;;6.78;4.55;;;13.70;99.90;;;;;;5009263;28;20061;-55
2022/09/11 04:53:59;;;;;;;7.63;4.93;;;13.70;99.90;;;;;;5009188;28;20045;-54
2022/09/11 04:56:28;;;;;;;8.65;4.68;;;13.70;99.90;;;;;;5009338;28;20036;-54
2022/09/11 04:59:12;;;;;;;10.35;4.85;;;13.70;99.90;;;;;;5009812;28;20430;-54
2022/09/11 05:01:38;;;;;;;7.45;4.78;;;13.70;99.90;;;;;;5010137;28;20045;-55
2022/09/11 05:04:05;;;;;;;8.43;5.00;;;13.70;99.90;;;;;;5009851;28;20026;-53
2022/09/11 05:06:31;;;;;;;8.65;4.93;;;13.80;99.90;;;;;;5009741;28;20076;-53
2022/09/11 05:09:03;;;;;;;6.03;4.50;;;13.80;99.90;;;;;;5009763;28;20175;-53
2022/09/11 05:11:29;;;;;;;6.93;5.07;;;13.90;99.90;;;;;;5008907;28;20265;-52
2022/09/11 05:13:57;;;;;;;7.30;4.80;;;13.90;99.90;;;;;;5007918;28;20076;-53
2022/09/11 05:16:24;;;;;;;9.32;5.70;;;13.90;99.90;;;;;;5008794;28;20544;-53
2022/09/11 05:18:51;;;;;;;7.40;4.68;;;14.00;99.90;;;;;;5009025;28;20042;-53
2022/09/11 05:21:17;;;;;;;10.60;5.35;;;14.00;99.90;;;;;;5009834;28;20030;-52
2022/09/11 05:23:47;;;;;;;7.57;5.17;;;14.00;99.90;;;;;;5009856;28;20045;-52
2022/09/11 05:26:14;;;;;;;7.03;5.32;;;14.00;99.90;;;;;;5009713;28;20022;-55
2022/09/11 05:28:40;;;;;;;8.50;5.43;;;14.00;99.90;;;;;;5009492;28;20075;-52
2022/09/11 05:31:11;;;;;;;7.80;5.50;;;14.10;99.90;;;;;;5009675;28;20473;-52
2022/09/11 05:33:37;;;;;;;9.60;6.22;;;14.10;99.90;;;;;;5009117;28;20030;-53
2022/09/11 05:36:04;;;;;;;7.57;5.55;;;14.10;99.90;;;;;;5011014;28;20021;-53
2022/09/11 05:38:32;;;;;;;8.70;5.65;;;14.10;99.90;;;;;;5012445;28;20022;-53
2022/09/11 05:40:58;;;;;;;12.63;6.32;;;14.10;99.90;;;;;;5011188;28;20512;-53
2022/09/11 05:43:25;;;;;;;8.63;5.18;;;14.10;99.90;;;;;;5013150;28;20083;-53
2022/09/11 05:45:56;;;;;;;12.30;5.72;;;14.20;99.90;;;;;;5013275;28;20102;-55
2022/09/11 05:48:22;;;;;;;10.30;5.97;;;14.20;99.90;;;;;;5013408;28;20041;-53
2022/09/11 05:50:58;;;;;;;8.13;6.05;;;14.20;99.90;;;;;;5013021;28;20033;-53
2022/09/11 05:53:24;;;;;;;10.27;5.95;;;14.20;99.90;;;;;;5013184;28;20030;-54
2022/09/11 05:55:53;;;;;;;9.73;5.43;;;14.20;99.90;;;;;;5013254;28;20087;-54
2022/09/11 05:58:20;;;;;;;7.97;4.85;;;14.20;99.90;;;;;;5012913;28;20025;-53
2022/09/11 06:00:47;;;;;;;9.03;5.00;;;14.20;99.90;;;;;;5013106;28;20033;-53
2022/09/11 06:03:13;;;;;;;8.33;5.53;;;14.20;99.90;;;;;;5013195;28;20261;-54
2022/09/11 06:05:39;;;;;;;7.97;5.28;;;14.20;99.90;;;;;;5012633;28;20044;-54
2022/09/11 06:08:07;;;;;;;7.47;5.20;;;14.30;99.90;;;;;;5012995;28;20034;-54
2022/09/11 06:10:34;;;;;;;8.73;5.85;;;14.30;99.90;;;;;;5012717;28;20040;-54
2022/09/11 06:12:59;;;;;;;8.65;5.53;;;14.30;99.90;;;;;;5012365;28;20378;-55
2022/09/11 06:15:25;;;;;;;8.77;5.50;;;14.30;99.90;;;;;;5029898;28;20037;-54
2022/09/11 06:17:52;;;;;;;9.50;5.68;;;14.30;99.90;;;;;;5031977;28;20510;-54
2022/09/11 06:20:18;;;;;;;14.97;6.30;;;14.40;99.90;;;;;;5031768;28;20033;-55
2022/09/11 06:22:43;;;;;;;9.60;5.88;;;14.40;99.90;;;;;;5032338;28;20543;-54
2022/09/11 06:25:09;;;;;;;9.50;6.10;;;14.50;99.90;;;;;;5032351;28;20042;-54
2022/09/11 06:27:35;;;;;;;12.77;6.03;;;14.60;99.90;;;;;;5030736;28;20026;-54
2022/09/11 06:30:00;;;;;;;8.35;5.53;;;14.60;99.90;;;;;;5032413;28;20088;-53
2022/09/11 06:32:26;;;;;;;10.15;5.78;;;14.60;99.90;;;;;;5032356;28;20482;-53
2022/09/11 06:34:53;;;;;;;9.25;5.72;;;14.60;99.90;;;;;;5031335;28;20099;-53
2022/09/11 06:37:19;;;;;;;8.00;5.80;;;14.50;99.90;;;;;;5032118;28;20029;-53
2022/09/11 06:39:44;;;;;;;8.13;4.97;;;14.60;99.90;;;;;;5031690;28;20045;-54
2022/09/11 06:42:10;;;;;;;12.38;5.90;;;14.60;99.90;;;;;;5031810;28;20029;-53
2022/09/11 06:44:36;;;;;;;10.25;6.00;;;14.60;99.90;;;;;;5031363;28;20029;-54
2022/09/11 06:47:02;;;;;;;8.80;6.43;;;14.60;99.90;;;;;;5031054;28;20017;-54
2022/09/11 06:49:28;;;;;;;8.57;6.17;;;14.50;99.90;;;;;;5030871;28;20396;-53
2022/09/11 06:51:54;;;;;;;10.40;6.68;;;14.50;99.90;;;;;;5030910;28;20025;-55
2022/09/11 06:54:20;;;;;;;7.85;5.72;;;14.50;99.90;;;;;;5020748;28;20057;-54
2022/09/11 06:56:45;;;;;;;9.18;5.88;;;14.50;99.90;;;;;;5011933;28;20037;-54
2022/09/11 06:59:12;;;;;;;12.95;6.53;;;14.60;99.90;;;;;;5011792;28;20045;-54
2022/09/11 07:01:38;;;;;;;9.35;6.43;;;14.60;99.90;;;;;;5011845;28;20030;-54
2022/09/11 07:04:04;;;;;;;8.90;6.22;;;14.60;99.90;;;;;;5011747;28;20032;-55
2022/09/11 07:06:30;;;;;;;11.55;6.90;;;14.70;99.90;;;;;;4994096;28;20145;-54
2022/09/11 07:09:00;;;;;;;10.45;6.80;;;14.70;99.90;;;;;;5011851;28;20021;-55
2022/09/11 07:11:26;;;;;;;10.80;6.60;;;14.80;99.90;;;;;;5011737;28;20030;-53
2022/09/11 07:13:52;;;;;;;9.88;6.97;;;14.70;99.90;;;;;;5011640;28;20030;-54
2022/09/11 07:16:18;;;;;;;10.85;6.80;;;14.80;99.90;;;;;;5010102;28;20484;-54
2022/09/11 07:18:45;;;;;;;28.75;9.65;;;14.80;99.90;;;;;;5011411;28;20112;-54
2022/09/11 07:21:11;;;;;;;;;;;14.80;99.90;;;;;;5012175;28;20061;-54
2022/09/11 07:23:38;;;;;;;13.77;7.05;;;14.80;99.90;;;;;;5011463;28;19994;-54
2022/09/11 07:26:06;;;;;;;11.00;7.25;;;14.80;99.90;;;;;;5011305;28;20025;-54
2022/09/11 07:28:33;;;;;;;13.73;8.13;;;14.80;99.90;;;;;;5011227;28;20180;-54
2022/09/11 07:31:10;;;;;;;10.43;7.38;;;14.80;99.90;;;;;;5011320;28;20038;-54
2022/09/11 07:33:41;;;;;;;10.23;7.55;;;14.80;99.90;;;;;;5011400;28;20030;-54
2022/09/11 07:36:12;;;;;;;11.25;7.93;;;14.80;99.90;;;;;;5011547;28;20212;-54
2022/09/11 07:38:42;;;;;;;12.00;7.78;;;14.80;99.90;;;;;;5011258;28;20030;-53
2022/09/11 07:41:09;;;;;;;11.23;7.72;;;14.80;99.90;;;;;;5011335;28;20026;-55
2022/09/11 07:43:35;;;;;;;11.07;7.63;;;14.80;99.90;;;;;;5009904;28;20029;-55
2022/09/11 07:46:02;;;;;;;14.20;8.30;;;14.80;99.90;;;;;;5011031;28;20273;-55
2022/09/11 07:48:28;;;;;;;11.02;7.30;;;14.90;99.90;;;;;;5011043;28;20405;-54
2022/09/11 07:51:01;;;;;;;11.45;7.78;;;14.90;99.90;;;;;;5011184;28;20554;-54
2022/09/11 07:53:27;;;;;;;10.38;7.45;;;14.90;99.90;;;;;;5011055;28;20038;-55
2022/09/11 07:55:54;;;;;;;13.63;9.25;;;15.00;99.90;;;;;;5010504;28;20367;-55
2022/09/11 07:58:20;;;;;;;;;;;15.00;99.90;;;;;;5009039;28;20046;-55
2022/09/11 08:00:46;;;;;;;10.77;7.57;;;15.10;99.90;;;;;;5019614;28;19929;-55
2022/09/11 08:03:12;;;;;;;10.55;7.93;;;15.10;99.90;;;;;;5019168;28;20021;-54
2022/09/11 08:05:37;;;;;;;10.45;7.47;;;15.10;99.90;;;;;;5020590;28;20423;-54
2022/09/11 08:08:03;;;;;;;10.73;8.15;;;15.10;99.90;;;;;;5019104;28;20108;-54
2022/09/11 08:10:29;;;;;;;12.60;7.95;;;15.20;99.90;;;;;;5018407;28;20034;-54
2022/09/11 08:12:55;;;;;;;10.50;7.70;;;15.20;99.90;;;;;;5021796;28;20021;-55
2022/09/11 08:15:21;;;;;;;9.18;7.18;;;15.20;99.90;;;;;;5018752;28;20477;-55
2022/09/11 08:17:47;;;;;;;11.70;7.63;;;15.20;99.90;;;;;;5016841;28;20026;-55
2022/09/11 08:20:13;;;;;;;11.13;8.27;;;15.30;99.90;;;;;;5014359;28;20048;-55
2022/09/11 08:22:38;;;;;;;9.63;7.60;;;15.20;99.90;;;;;;5009671;28;20022;-54
2022/09/11 08:25:04;;;;;;;10.52;8.38;;;15.30;99.90;;;;;;5012240;28;20519;-55
2022/09/11 08:27:30;;;;;;;12.05;8.98;;;15.30;99.90;;;;;;5014622;28;20465;-55
2022/09/11 08:29:56;;;;;;;13.57;8.82;;;15.40;99.90;;;;;;5010718;28;20033;-55
2022/09/11 08:32:21;;;;;;;12.50;9.45;;;15.40;99.90;;;;;;5015409;28;20030;-54
2022/09/11 08:34:47;;;;;;;13.07;10.20;;;15.50;99.90;;;;;;5020491;28;20352;-56
2022/09/11 08:37:13;;;;;;;14.20;10.40;;;15.50;99.90;;;;;;5017041;28;20108;-56
2022/09/11 08:39:39;;;;;;;13.40;9.32;;;15.50;99.90;;;;;;5019705;28;20804;-55
2022/09/11 08:42:15;;;;;;;10.68;8.30;;;15.40;99.90;;;;;;5014909;28;20351;-54
2022/09/11 08:44:49;;;;;;;13.25;10.18;;;15.40;99.90;;;;;;5016281;28;20627;-54
2022/09/11 08:47:24;;;;;;;12.82;9.77;;;15.40;99.90;;;;;;5017763;28;20036;-54
2022/09/11 08:50:05;;;;;;;12.77;9.75;;;15.40;99.90;;;;;;5016942;28;20061;-54
2022/09/11 08:52:34;;;;;;;12.70;9.25;;;15.50;99.90;;;;;;5016930;28;20115;-55
2022/09/11 08:55:01;;;;;;;11.82;9.23;;;15.50;99.90;;;;;;5019641;28;20029;-56
2022/09/11 08:57:41;;;;;;;9.23;7.18;;;15.50;99.90;;;;;;5017376;28;20021;-55
2022/09/11 09:00:17;;;;;;;10.77;8.13;;;15.60;99.90;;;;;;5014485;28;20037;-55
2022/09/11 09:03:01;;;;;;;20.70;11.65;;;15.70;99.90;;;;;;5007286;28;20015;-55
2022/09/11 09:05:52;;;;;;;12.45;9.30;;;15.80;99.90;;;;;;5005502;28;20038;-54
2022/09/11 09:08:40;;;;;;;8.95;7.22;;;15.90;99.90;;;;;;5008258;28;20316;-54
2022/09/11 09:11:36;;;;;;;10.97;8.23;;;16.00;99.90;;;;;;5007624;28;20030;-55
2022/09/11 09:14:05;;;;;;;12.68;9.48;;;16.00;99.90;;;;;;5008072;28;20025;-55
2022/09/11 09:16:44;;;;;;;18.63;10.43;;;16.10;99.90;;;;;;5010269;28;20422;-54
2022/09/11 09:19:45;;;;;;;17.63;10.50;;;16.10;99.90;;;;;;5011318;28;20045;-55
2022/09/11 09:22:23;;;;;;;11.90;8.35;;;16.00;99.90;;;;;;4984875;28;20038;-54
2022/09/11 09:24:52;;;;;;;6.35;4.57;;;16.00;99.90;;;;;;5001566;28;20030;-54
2022/09/11 09:27:34;;;;;;;6.97;4.65;;;16.00;99.90;;;;;;4999497;28;20033;-54
2022/09/11 09:30:04;;;;;;;6.40;4.80;;;16.10;99.90;;;;;;5005057;28;20042;-54
2022/09/11 09:32:38;;;;;;;10.98;4.97;;;16.20;99.90;;;;;;5009654;28;20022;-54
2022/09/11 09:35:14;;;;;;;6.68;4.72;;;16.30;99.90;;;;;;5010961;28;20531;-54
2022/09/11 09:37:40;;;;;;;5.88;4.18;;;16.40;99.90;;;;;;5010452;28;20026;-54
2022/09/11 09:40:09;;;;;;;9.38;4.80;;;16.50;99.90;;;;;;5012046;28;20053;-54
2022/09/11 09:42:46;;;;;;;8.57;4.85;;;16.50;99.90;;;;;;4991450;28;20025;-54
2022/09/11 09:45:18;;;;;;;8.57;4.15;;;16.50;99.90;;;;;;5008475;28;20076;-54
2022/09/11 09:47:46;;;;;;;8.18;4.60;;;16.50;99.90;;;;;;5010246;28;20527;-53
2022/09/11 09:50:31;;;;;;;6.50;4.10;;;16.50;99.90;;;;;;5010368;28;20097;-53
2022/09/11 09:53:26;;;;;;;5.22;3.72;;;16.40;99.90;;;;;;5009892;28;20026;-53
2022/09/11 09:55:55;;;;;;;6.90;3.47;;;16.30;99.90;;;;;;5005423;28;20121;-53
2022/09/11 09:58:38;;;;;;;6.97;3.55;;;16.30;99.90;;;;;;5009885;28;20765;-54
2022/09/11 10:01:43;;;;;;;5.60;3.90;;;16.30;99.90;;;;;;5010515;28;20038;-54
2022/09/11 10:04:15;;;;;;;4.72;3.33;;;16.30;99.90;;;;;;5011532;28;20040;-52
2022/09/11 10:06:42;;;;;;;7.55;3.10;;;16.20;99.90;;;;;;5011057;28;20030;-55
2022/09/11 10:09:25;;;;;;;8.20;3.60;;;16.30;99.90;;;;;;5010556;28;20500;-53
2022/09/11 10:12:06;;;;;;;6.43;3.35;;;16.20;99.90;;;;;;5010736;28;20040;-53
2022/09/11 10:14:56;;;;;;;5.78;2.67;;;16.20;99.90;;;;;;5011693;28;20032;-55
2022/09/11 10:17:30;;;;;;;7.53;3.10;;;16.20;99.90;;;;;;5023103;28;20507;-54
2022/09/11 10:20:31;;;;;;;10.57;3.25;;;16.10;99.90;;;;;;5024481;28;20045;-55
2022/09/11 10:23:24;;;;;;;6.22;2.92;;;16.20;99.90;;;;;;5010808;28;20045;-54
2022/09/11 10:25:51;;;;;;;5.82;3.38;;;16.20;99.90;;;;;;5010586;28;20091;-55
2022/09/11 10:28:27;;;;;;;5.47;3.90;;;16.40;99.90;;;;;;5009100;28;20449;-52
2022/09/11 10:31:03;;;;;;;6.13;4.00;;;16.40;99.90;;;;;;5000906;28;20582;-52
2022/09/11 10:33:35;;;;;;;6.22;3.95;;;16.60;99.90;;;;;;5003011;28;20052;-52
2022/09/11 10:36:06;;;;;;;6.68;3.40;;;16.80;99.90;;;;;;5002053;28;20022;-54
2022/09/11 10:38:37;;;;;;;6.05;3.70;;;16.90;99.90;;;;;;5000483;28;20022;-54
2022/09/11 10:41:12;;;;;;;6.97;3.10;;;17.10;99.90;;;;;;4999990;28;20045;-54
2022/09/11 10:43:59;;;;;;;8.60;2.70;;;17.20;99.90;;;;;;5002231;28;20119;-54
2022/09/11 10:46:35;;;;;;;6.00;3.83;;;17.30;99.90;;;;;;5001876;28;20044;-54
2022/09/11 10:49:04;;;;;;;9.00;3.58;;;17.40;99.90;;;;;;5000869;28;20033;-54
2022/09/11 10:51:31;;;;;;;4.18;3.30;;;17.40;99.90;;;;;;4999841;28;20033;-54
2022/09/11 10:54:15;;;;;;;6.15;3.55;;;17.40;99.90;;;;;;5001122;28;20855;-55
2022/09/11 10:57:21;;;;;;;5.65;4.10;;;17.40;99.90;;;;;;5001313;28;20061;-54
2022/09/11 11:00:01;;;;;;;6.13;3.58;;;17.50;99.90;;;;;;5002114;28;20490;-54
2022/09/11 11:02:28;;;;;;;9.25;4.40;;;17.60;99.90;;;;;;4995508;28;20057;-53
2022/09/11 11:04:57;;;;;;;7.85;5.03;;;17.60;99.90;;;;;;5000068;28;20065;-53
2022/09/11 11:07:40;;;;;;;5.82;3.45;;;17.70;99.90;;;;;;4998149;28;20014;-54
2022/09/11 11:10:29;;;;;;;6.55;3.40;;;17.80;99.90;;;;;;5000619;28;20473;-54
2022/09/11 11:13:05;;;;;;;7.10;4.32;;;18.10;99.90;;;;;;4987341;28;20042;-54
2022/09/11 11:15:44;;;;;;;6.65;4.32;;;18.50;99.90;;;;;;4990330;28;20110;-54
2022/09/11 11:18:33;;;;;;;7.25;4.93;;;18.70;99.90;;;;;;4990358;28;20030;-53
2022/09/11 11:21:20;;;;;;;6.53;5.57;;;18.90;99.90;;;;;;4972818;28;20030;-54
2022/09/11 11:24:04;;;;;;;5.13;4.35;;;19.00;99.90;;;;;;4978458;28;20055;-54
2022/09/11 11:26:45;;;;;;;6.55;3.92;;;19.10;99.90;;;;;;4988759;28;20042;-54
2022/09/11 11:29:38;;;;;;;7.18;3.97;;;19.20;99.90;;;;;;4995183;28;20056;-54
2022/09/11 11:32:32;;;;;;;5.72;3.42;;;19.40;99.90;;;;;;5013318;28;20026;-54
2022/09/11 11:35:00;;;;;;;4.55;3.22;;;19.40;99.90;;;;;;5020414;28;20034;-54
2022/09/11 11:37:32;;;;;;;5.32;3.33;;;19.60;99.90;;;;;;5015752;28;20028;-54
2022/09/11 11:40:02;;;;;;;6.85;3.50;;;19.80;99.90;;;;;;5013448;28;20049;-56
2022/09/11 11:42:43;;;;;;;4.78;2.17;;;19.90;99.90;;;;;;5008986;28;20032;-54
2022/09/11 11:45:48;;;;;;;4.15;2.15;;;20.10;99.90;;;;;;5008515;28;20052;-54
2022/09/11 11:48:16;;;;;;;2.83;2.00;;;20.20;99.90;;;;;;4970867;28;20096;-54
2022/09/11 11:50:47;;;;;;;3.65;1.80;;;20.20;99.90;;;;;;5015143;28;20037;-55
2022/09/11 11:53:28;;;;;;;3.88;1.85;;;20.40;99.90;;;;;;5009363;28;20040;-55
2022/09/11 11:55:56;;;;;;;4.40;1.60;;;20.30;99.90;;;;;;5018588;28;20048;-54
2022/09/11 11:58:29;;;;;;;3.97;1.85;;;20.00;99.90;;;;;;5020643;28;20118;-54
2022/09/11 12:01:00;;;;;;;3.10;1.90;;;19.60;99.90;;;;;;4991805;28;20033;-54
2022/09/11 12:03:37;;;;;;;5.82;2.55;;;19.50;99.90;;;;;;5015196;28;20018;-54
2022/09/11 12:06:06;;;;;;;3.33;1.88;;;19.40;99.90;;;;;;5022352;28;20029;-54
2022/09/11 12:08:32;;;;;;;5.82;2.78;;;19.80;99.90;;;;;;5014150;28;20049;-55
2022/09/11 12:11:03;;;;;;;5.60;2.70;;;19.90;99.90;;;;;;5013262;28;20025;-55
2022/09/11 12:13:32;;;;;;;7.50;3.97;;;20.00;99.90;;;;;;5026777;28;20032;-55
2022/09/11 12:16:30;;;;;;;8.60;2.53;;;20.00;99.90;;;;;;5022881;28;20041;-55
2022/09/11 12:19:24;;;;;;;6.18;2.00;;;19.90;99.90;;;;;;5023284;28;20124;-55
2022/09/11 12:21:54;;;;;;;3.13;2.40;;;20.20;99.90;;;;;;5017652;28;20050;-55
2022/09/11 12:24:44;;;;;;;2.90;1.88;;;20.60;99.90;;;;;;5019258;28;20207;-55
2022/09/11 12:27:31;;;;;;;3.35;2.10;;;20.60;99.90;;;;;;4991187;28;20121;-55
2022/09/11 12:30:26;;;;;;;6.50;2.63;;;21.00;99.90;;;;;;5016790;28;20033;-55
2022/09/11 12:33:00;;;;;;;4.13;1.95;;;21.30;99.90;;;;;;5016072;28;20034;-55
2022/09/11 12:35:50;;;;;;;4.05;2.08;;;21.40;99.90;;;;;;5018094;28;20029;-55
2022/09/11 12:38:26;;;;;;;5.93;2.30;;;21.50;99.90;;;;;;5015353;28;20117;-54
2022/09/11 12:41:06;;;;;;;5.95;2.55;;;21.50;99.90;;;;;;5010774;28;20037;-56
2022/09/11 12:43:34;;;;;;;7.40;3.70;;;21.70;99.90;;;;;;5016975;28;20022;-55
2022/09/11 12:46:02;;;;;;;6.57;2.17;;;21.80;99.90;;;;;;5015485;28;20087;-55
2022/09/11 12:48:41;;;;;;;4.88;2.13;;;21.80;99.90;;;;;;5019910;28;20218;-55
2022/09/11 12:51:21;;;;;;;7.63;2.53;;;21.60;99.90;;;;;;5001492;28;20029;-55
2022/09/11 12:53:59;;;;;;;4.15;2.20;;;21.20;99.90;;;;;;5006805;28;20018;-55
2022/09/11 12:56:28;;;;;;;4.53;1.85;;;21.20;99.90;;;;;;4998167;28;20022;-55
2022/09/11 12:59:01;;;;;;;5.88;2.08;;;21.20;99.90;;;;;;4998973;28;20026;-56
2022/09/11 13:01:52;;;;;;;3.95;2.55;;;21.20;99.90;;;;;;5000102;28;20025;-55
2022/09/11 13:04:25;;;;;;;5.60;2.28;;;20.90;99.90;;;;;;5008050;28;20034;-55
2022/09/11 13:07:04;;;;;;;4.03;2.72;;;20.60;99.90;;;;;;4997261;28;20050;-56
2022/09/11 13:09:57;;;;;;;4.40;2.67;;;20.20;99.90;;;;;;4994741;28;20050;-55